Time;durP1;ratioP1;P1;durP2;ratioP2;P2;SDS_P1;SDS_P2;PMS_P1;PMS_P2;Temp;Humidity;BMP_temperature;BMP_pressure;BME280_temperature;BME280_humidity;BME280_pressure;Samples;Min_cycle;Max_cycle;Signal;HPM_P1;HPM_P2
2020/12/05 00:00:45;;;;;;;2.43;2.03;;;;;;;-1.47;83.35;101425.56;1731672;81;21032;-68
2020/12/05 00:03:13;;;;;;;2.07;1.70;;;;;;;-1.51;83.25;101433.22;1731732;82;21029;-68
2020/12/05 00:05:42;;;;;;;1.23;1.23;;;;;;;-1.55;83.18;101432.95;1731858;82;21471;-69
2020/12/05 00:08:10;;;;;;;4.13;2.83;;;;;;;-1.58;83.13;101433.05;1731820;82;21073;-68
2020/12/05 00:10:38;;;;;;;5.50;2.30;;;;;;;-1.62;83.08;101434.11;1731696;82;21056;-68
2020/12/05 00:13:06;;;;;;;1.53;1.43;;;;;;;-1.64;83.03;101435.95;1731804;82;20977;-67
2020/12/05 00:15:34;;;;;;;3.67;2.13;;;;;;;-1.68;82.98;101427.69;1731693;82;21076;-68
2020/12/05 00:18:02;;;;;;;2.23;1.70;;;;;;;-1.70;82.93;101427.75;1731782;82;21458;-68
2020/12/05 00:20:31;;;;;;;4.53;2.17;;;;;;;-1.72;82.87;101430.48;1743989;81;21025;-68
2020/12/05 00:22:59;;;;;;;3.40;1.63;;;;;;;-1.72;82.82;101433.58;1737079;81;21021;-67
2020/12/05 00:25:27;;;;;;;1.90;1.63;;;;;;;-1.75;82.78;101429.27;1786039;80;21030;-67
2020/12/05 00:27:55;;;;;;;4.00;2.00;;;;;;;-1.75;82.73;101425.29;1734275;82;21005;-68
2020/12/05 00:30:28;;;;;;;2.40;2.20;;;;;;;-1.76;82.70;101422.69;1764506;81;21453;-68
2020/12/05 00:33:02;;;;;;;2.67;1.93;;;;;;;-1.78;82.64;101429.38;1760349;81;20997;-68
2020/12/05 00:35:30;;;;;;;2.47;2.27;;;;;;;-1.81;82.62;101432.14;1765308;81;21032;-68
2020/12/05 00:37:58;;;;;;;2.03;1.70;;;;;;;-1.80;82.60;101433.02;1765289;81;20977;-68
2020/12/05 00:40:27;;;;;;;1.93;1.43;;;;;;;-1.83;82.51;101431.33;1765273;81;21008;-68
2020/12/05 00:42:56;;;;;;;2.43;2.23;;;;;;;-1.85;82.47;101436.30;1765395;81;21398;-68
2020/12/05 00:45:24;;;;;;;2.40;2.20;;;;;;;-1.89;82.34;101430.69;1765207;81;21024;-67
2020/12/05 00:47:52;;;;;;;2.27;2.07;;;;;;;-1.96;82.19;101432.26;1765271;81;21037;-67
2020/12/05 00:50:21;;;;;;;1.87;1.53;;;;;;;-2.01;82.12;101422.28;1765189;81;21009;-68
2020/12/05 00:52:49;;;;;;;2.63;2.03;;;;;;;-2.03;82.07;101423.27;1733119;81;20993;-67
2020/12/05 00:55:19;;;;;;;4.03;2.57;;;;;;;-2.05;82.06;101415.81;1762734;81;21601;-67
2020/12/05 00:57:47;;;;;;;2.60;2.30;;;;;;;-2.07;81.99;101421.20;1734855;82;20958;-67
2020/12/05 01:00:16;;;;;;;3.17;2.53;;;;;;;-2.11;81.94;101420.45;1734752;82;20970;-68
2020/12/05 01:02:44;;;;;;;3.73;2.00;;;;;;;-2.15;81.80;101421.45;1734857;82;20931;-67
2020/12/05 01:05:12;;;;;;;2.27;2.07;;;;;;;-2.20;81.66;101422.08;1734863;81;20964;-67
2020/12/05 01:07:42;;;;;;;1.87;1.73;;;;;;;-2.24;81.54;101421.80;1734793;82;21038;-68
2020/12/05 01:10:10;;;;;;;2.57;2.13;;;;;;;-2.30;81.47;101425.53;1734808;82;21919;-68
2020/12/05 01:12:38;;;;;;;2.40;1.87;;;;;;;-2.32;81.40;101431.36;1734828;81;21319;-67
2020/12/05 01:15:05;;;;;;;2.53;2.33;;;;;;;-2.35;81.37;101428.80;1734817;82;20959;-67
2020/12/05 01:17:37;;;;;;;4.53;2.63;;;;;;;-2.36;81.38;101432.36;1734896;82;21022;-68
2020/12/05 01:20:06;;;;;;;1.00;1.00;;;;;;;-2.35;81.39;101431.92;1734791;82;21455;-69
2020/12/05 01:22:34;;;;;;;2.23;1.63;;;;;;;-2.37;81.37;101440.39;1734680;82;21046;-68
2020/12/05 01:25:03;;;;;;;2.60;2.13;;;;;;;-2.37;81.34;101437.74;1734925;81;20987;-67
2020/12/05 01:27:31;;;;;;;2.73;2.50;;;;;;;-2.41;81.21;101440.93;1734771;82;21155;-68
2020/12/05 01:29:59;;;;;;;1.17;1.10;;;;;;;-2.44;81.14;101434.88;1734898;82;21058;-68
2020/12/05 01:32:27;;;;;;;2.03;1.90;;;;;;;-2.47;81.13;101441.62;1743392;79;21370;-68
2020/12/05 01:34:55;;;;;;;1.90;1.57;;;;;;;-2.50;81.09;101432.88;1770683;79;20980;-68
2020/12/05 01:37:23;;;;;;;2.97;2.13;;;;;;;-2.52;81.03;101429.86;1770911;81;20924;-68
2020/12/05 01:39:51;;;;;;;2.90;2.27;;;;;;;-2.54;80.96;101434.34;1770953;81;21027;-68
2020/12/05 01:42:19;;;;;;;2.50;1.83;;;;;;;-2.55;80.95;101436.57;1770909;81;21012;-68
2020/12/05 01:44:46;;;;;;;1.93;1.77;;;;;;;-2.56;80.97;101429.56;1770970;81;21199;-67
2020/12/05 01:47:14;;;;;;;2.80;2.43;;;;;;;-2.57;80.96;101441.06;1770824;79;21008;-68
2020/12/05 01:49:42;;;;;;;2.47;2.23;;;;;;;-2.59;80.92;101438.46;1770940;81;20988;-67
2020/12/05 01:52:10;;;;;;;2.87;2.33;;;;;;;-2.59;80.90;101442.44;1770994;81;21015;-68
2020/12/05 01:54:38;;;;;;;3.17;2.73;;;;;;;-2.60;80.85;101441.16;1770945;81;21027;-67
2020/12/05 01:57:06;;;;;;;3.93;2.13;;;;;;;-2.60;80.85;101447.34;1741249;81;21359;-68
2020/12/05 01:59:34;;;;;;;2.47;2.27;;;;;;;-2.62;80.82;101437.27;1734734;82;20996;-67
2020/12/05 02:02:04;;;;;;;1.83;1.73;;;;;;;-2.61;80.84;101444.74;1734824;82;20937;-68
2020/12/05 02:04:53;;;;;;;2.37;2.07;;;;;;;-2.62;80.85;101447.86;1734776;82;21028;-68
2020/12/05 02:07:38;;;;;;;3.43;2.23;;;;;;;-2.61;80.88;101447.39;1698465;84;21025;-68
2020/12/05 02:10:16;;;;;;;5.90;2.87;;;;;;;-2.59;80.86;101443.76;1845303;76;23852;-67
2020/12/05 02:12:49;;;;;;;2.20;2.00;;;;;;;-2.62;80.82;101450.94;1815323;78;20924;-68
2020/12/05 02:15:23;;;;;;;1.53;1.43;;;;;;;-2.64;80.83;101449.67;1808832;79;21202;-67
2020/12/05 02:18:07;;;;;;;2.33;2.10;;;;;;;-2.63;80.84;101451.41;1808980;79;20934;-68
2020/12/05 02:20:41;;;;;;;3.90;1.87;;;;;;;-2.58;80.84;101451.27;1814470;77;24001;-67
2020/12/05 02:23:17;;;;;;;5.63;2.87;;;;;;;-2.61;80.83;101457.98;1781313;80;20991;-67
2020/12/05 02:25:52;;;;;;;2.43;2.10;;;;;;;-2.63;80.78;101446.12;1786180;80;20962;-68
2020/12/05 02:28:20;;;;;;;4.00;2.83;;;;;;;-2.65;80.73;101458.55;1786193;80;21014;-67
2020/12/05 02:30:49;;;;;;;1.73;1.63;;;;;;;-2.65;80.71;101448.42;1786094;80;20983;-67
2020/12/05 02:33:18;;;;;;;2.83;1.93;;;;;;;-2.68;80.69;101440.96;1786086;78;21008;-67
2020/12/05 02:35:45;;;;;;;1.57;1.47;;;;;;;-2.69;80.68;101447.20;1786233;80;20945;-67
2020/12/05 02:38:29;;;;;;;2.03;1.60;;;;;;;-2.70;80.70;101453.39;1786179;80;21379;-69
2020/12/05 02:40:57;;;;;;;1.57;1.47;;;;;;;-2.71;80.73;101447.71;1786321;80;26552;-68
2020/12/05 02:43:25;;;;;;;1.77;1.27;;;;;;;-2.72;80.76;101457.03;1786179;80;21052;-67
2020/12/05 02:45:54;;;;;;;3.97;2.33;;;;;;;-2.74;80.78;101453.09;1786124;80;20981;-67
2020/12/05 02:48:22;;;;;;;1.90;1.80;;;;;;;-2.73;80.85;101455.28;1786341;80;20917;-67
2020/12/05 02:50:50;;;;;;;1.30;1.30;;;;;;;-2.71;80.94;101463.59;1786208;80;21216;-67
2020/12/05 02:53:18;;;;;;;2.30;2.03;;;;;;;-2.69;81.00;101463.08;1786137;80;20945;-67
2020/12/05 02:55:45;;;;;;;2.57;1.97;;;;;;;-2.66;81.06;101462.09;1787524;80;21016;-67
2020/12/05 02:58:14;;;;;;;5.10;3.10;;;;;;;-2.67;81.11;101469.19;1791363;80;21005;-68
2020/12/05 03:00:42;;;;;;;4.53;2.63;;;;;;;-2.65;81.15;101479.73;1791486;79;20942;-68
2020/12/05 03:03:10;;;;;;;1.77;1.67;;;;;;;-2.63;81.21;101470.42;1791509;80;21373;-68
2020/12/05 03:05:39;;;;;;;7.10;2.70;;;;;;;-2.63;81.25;101484.52;1791447;80;20933;-68
2020/12/05 03:08:06;;;;;;;3.10;2.60;;;;;;;-2.62;81.29;101473.02;1791513;80;20996;-69
2020/12/05 03:10:34;;;;;;;2.90;2.40;;;;;;;-2.60;81.39;101475.59;1791448;80;21029;-67
2020/12/05 03:13:02;;;;;;;1.90;1.43;;;;;;;-2.58;81.43;101474.64;1791490;80;20985;-67
2020/12/05 03:15:30;;;;;;;1.63;1.53;;;;;;;-2.56;81.43;101480.73;1791408;80;21190;-66
2020/12/05 03:17:57;;;;;;;2.00;1.90;;;;;;;-2.56;81.45;101482.53;1790815;80;21072;-68
2020/12/05 03:20:25;;;;;;;1.57;1.13;;;;;;;-2.55;81.52;101488.22;1779970;80;20998;-68
2020/12/05 03:22:53;;;;;;;2.00;1.73;;;;;;;-2.54;81.58;101482.02;1776467;80;21049;-67
2020/12/05 03:25:21;;;;;;;1.33;1.33;;;;;;;-2.54;81.63;101487.31;1817634;78;20934;-67
2020/12/05 03:27:49;;;;;;;2.13;1.93;;;;;;;-2.51;81.73;101497.81;1826082;78;22096;-68
2020/12/05 03:30:18;;;;;;;2.33;2.13;;;;;;;-2.52;81.83;101492.09;1826042;78;21005;-66
2020/12/05 03:32:46;;;;;;;4.70;2.50;;;;;;;-2.52;81.93;101491.63;1805733;78;21000;-67
2020/12/05 03:35:14;;;;;;;3.93;2.70;;;;;;;-2.51;82.01;101484.57;1771759;80;21008;-67
2020/12/05 03:37:42;;;;;;;0.90;0.90;;;;;;;-2.50;82.11;101481.88;1772007;81;21538;-66
2020/12/05 03:40:09;;;;;;;8.77;4.00;;;;;;;-2.47;82.19;101480.03;1771948;81;21202;-67
2020/12/05 03:42:38;;;;;;;6.90;3.43;;;;;;;-2.45;82.29;101473.75;1771778;81;21044;-67
2020/12/05 03:45:06;;;;;;;9.03;4.90;;;;;;;-2.43;82.35;101475.03;1771840;81;20980;-66
2020/12/05 03:47:34;;;;;;;8.03;4.00;;;;;;;-2.43;82.46;101475.88;1771823;81;20989;-67
2020/12/05 03:50:04;;;;;;;4.33;3.43;;;;;;;-2.41;82.53;101490.41;1771765;81;21000;-66
2020/12/05 03:52:33;;;;;;;3.10;2.43;;;;;;;-2.41;82.58;101483.31;1771906;80;21429;-67
2020/12/05 03:55:00;;;;;;;6.47;3.00;;;;;;;-2.39;82.63;101484.16;1771952;80;21467;-67
2020/12/05 03:57:29;;;;;;;3.87;2.13;;;;;;;-2.37;82.68;101480.98;1771812;81;21037;-66
2020/12/05 03:59:56;;;;;;;3.47;1.87;;;;;;;-2.35;82.75;101484.91;1771746;80;21026;-67
2020/12/05 04:02:24;;;;;;;3.50;2.77;;;;;;;-2.33;82.81;101479.09;1771823;81;21002;-67
2020/12/05 04:04:52;;;;;;;3.23;2.93;;;;;;;-2.33;82.89;101479.95;1771864;81;21354;-67
2020/12/05 04:07:21;;;;;;;2.93;2.00;;;;;;;-2.32;82.97;101480.81;1771855;81;21009;-67
2020/12/05 04:09:50;;;;;;;2.80;2.10;;;;;;;-2.32;83.04;101478.16;1771826;81;21052;-67
2020/12/05 04:12:18;;;;;;;4.53;2.07;;;;;;;-2.30;83.13;101481.65;1771737;81;21022;-67
2020/12/05 04:14:46;;;;;;;2.67;2.00;;;;;;;-2.29;83.21;101471.44;1771756;81;20990;-68
2020/12/05 04:17:14;;;;;;;2.97;2.67;;;;;;;-2.29;83.27;101470.97;1771857;81;21265;-67
2020/12/05 04:19:41;;;;;;;1.50;1.40;;;;;;;-2.25;83.33;101469.55;1771634;80;21025;-67
2020/12/05 04:22:09;;;;;;;1.93;1.77;;;;;;;-2.24;83.36;101467.31;1771832;81;20950;-67
2020/12/05 04:24:37;;;;;;;2.87;2.13;;;;;;;-2.24;83.47;101475.27;1771743;81;20998;-67
2020/12/05 04:27:05;;;;;;;2.10;1.90;;;;;;;-2.24;83.50;101473.47;1771853;80;21034;-66
2020/12/05 04:29:33;;;;;;;2.03;1.60;;;;;;;-2.22;83.52;101478.72;1771820;81;21378;-67
2020/12/05 04:32:01;;;;;;;1.20;1.17;;;;;;;-2.21;83.57;101471.16;1771561;80;21001;-66
2020/12/05 04:34:29;;;;;;;6.30;1.43;;;;;;;-2.19;83.60;101471.52;1771820;81;20934;-68
2020/12/05 04:36:59;;;;;;;2.20;1.20;;;;;;;-2.16;83.70;101477.16;1771791;81;20986;-67
2020/12/05 04:39:27;;;;;;;3.70;2.33;;;;;;;-2.17;83.74;101476.78;1771735;81;21033;-68
2020/12/05 04:41:55;;;;;;;4.20;2.00;;;;;;;-2.17;83.77;101479.42;1771768;81;21202;-67
2020/12/05 04:44:23;;;;;;;7.03;3.23;;;;;;;-2.16;83.84;101471.42;1771755;81;21057;-68
2020/12/05 04:46:51;;;;;;;2.83;2.33;;;;;;;-2.15;83.90;101481.09;1771738;80;20946;-68
2020/12/05 04:49:19;;;;;;;2.43;1.70;;;;;;;-2.14;83.96;101471.37;1772639;81;20942;-66
2020/12/05 04:51:51;;;;;;;2.20;1.90;;;;;;;-2.13;84.01;101468.64;1750321;81;20997;-67
2020/12/05 04:54:24;;;;;;;1.67;1.57;;;;;;;-2.11;84.09;101469.91;1771875;81;21159;-67
2020/12/05 04:56:55;;;;;;;3.27;2.27;;;;;;;-2.11;84.19;101461.53;1789003;79;21081;-67
2020/12/05 04:59:22;;;;;;;2.20;2.03;;;;;;;-2.10;84.28;101461.06;1798667;79;20927;-68
2020/12/05 05:01:51;;;;;;;5.70;3.03;;;;;;;-2.10;84.38;101468.54;1798668;79;20942;-68
2020/12/05 05:04:19;;;;;;;3.30;2.40;;;;;;;-2.09;84.50;101476.02;1798671;79;21021;-67
2020/12/05 05:06:47;;;;;;;4.10;2.83;;;;;;;-2.07;84.58;101476.86;1798635;79;21207;-68
2020/12/05 05:09:15;;;;;;;2.87;1.70;;;;;;;-2.04;84.67;101475.88;1798489;79;21037;-68
2020/12/05 05:11:55;;;;;;;2.17;1.97;;;;;;;-2.03;84.72;101457.73;1798732;79;20947;-68
2020/12/05 05:14:34;;;;;;;3.20;1.73;;;;;;;-2.02;84.79;101460.77;1774136;80;20982;-68
2020/12/05 05:17:10;;;;;;;14.18;5.28;;;;;;;-1.97;84.88;101457.03;1829116;75;27778;-67
2020/12/05 05:19:37;;;;;;;4.13;3.10;;;;;;;-1.95;84.91;101462.27;1815239;79;20929;-68
2020/12/05 05:22:05;;;;;;;2.40;1.90;;;;;;;-1.89;84.94;101472.67;1815360;77;22268;-67
2020/12/05 05:24:33;;;;;;;2.83;2.10;;;;;;;-1.86;84.98;101461.08;1784239;79;20988;-68
2020/12/05 05:27:08;;;;;;;7.43;3.53;;;;;;;-1.84;85.02;101471.16;1815238;79;21015;-67
2020/12/05 05:29:42;;;;;;;1.73;1.60;;;;;;;-1.84;85.08;101473.81;1815175;79;20995;-68
2020/12/05 05:32:19;;;;;;;2.87;2.20;;;;;;;-1.83;85.10;101477.73;1815020;78;20986;-67
2020/12/05 05:34:46;;;;;;;3.10;1.63;;;;;;;-1.82;85.14;101487.44;1809754;79;21202;-68
2020/12/05 05:37:19;;;;;;;2.33;1.60;;;;;;;-1.83;85.09;101494.97;1747039;82;21017;-66
2020/12/05 05:39:49;;;;;;;3.27;1.70;;;;;;;-1.85;85.06;101494.64;1769714;81;21030;-67
2020/12/05 05:42:33;;;;;;;5.60;3.20;;;;;;;-1.87;84.99;101496.48;1769607;81;21013;-68
2020/12/05 05:45:17;;;;;;;3.50;1.77;;;;;;;-1.89;84.91;101495.65;1676252;85;22210;-68
2020/12/05 05:48:03;;;;;;;3.40;2.23;;;;;;;-1.85;84.85;101493.31;1889903;76;26331;-68
2020/12/05 05:50:36;;;;;;;4.43;2.90;;;;;;;-1.91;84.78;101501.89;1860896;77;21551;-68
2020/12/05 05:53:10;;;;;;;3.33;1.90;;;;;;;-1.94;84.71;101499.34;1861051;77;21356;-67
2020/12/05 05:55:46;;;;;;;5.30;3.17;;;;;;;-1.96;84.69;101505.16;1796314;79;20990;-67
2020/12/05 05:58:21;;;;;;;5.70;3.07;;;;;;;-1.93;84.67;101504.17;1889899;76;24984;-68
2020/12/05 06:00:50;;;;;;;2.57;2.17;;;;;;;-2.01;84.63;101500.95;1860907;77;20986;-67
2020/12/05 06:03:22;;;;;;;5.63;3.47;;;;;;;-2.03;84.63;101506.77;1860694;77;21378;-68
2020/12/05 06:05:52;;;;;;;4.23;2.33;;;;;;;-2.04;84.64;101507.68;1860628;77;20947;-72
2020/12/05 06:08:25;;;;;;;6.27;3.00;;;;;;;-2.07;84.63;101507.78;1860877;77;21606;-71
2020/12/05 06:10:59;;;;;;;2.57;2.37;;;;;;;-2.10;84.66;101504.80;1860873;77;21014;-71
2020/12/05 06:13:29;;;;;;;6.17;3.62;;;;;;;-2.09;84.74;101510.48;1860884;77;20967;-58
2020/12/05 06:15:58;;;;;;;7.27;3.87;;;;;;;-2.08;84.81;101505.59;1860683;77;21529;-58
2020/12/05 06:18:27;;;;;;;6.60;4.03;;;;;;;-2.05;84.89;101509.47;1860836;77;21013;-79
2020/12/05 06:20:54;;;;;;;4.00;2.37;;;;;;;-2.02;84.89;101515.11;1860526;77;21049;-59
2020/12/05 06:23:51;;;;;;;3.43;2.03;;;;;;;-2.02;84.91;101510.70;1860605;77;20918;-65
2020/12/05 06:26:27;;;;;;;3.63;2.50;;;;;;;-1.99;84.95;101515.02;1775866;79;21417;-65
2020/12/05 06:28:55;;;;;;;5.83;4.33;;;;;;;-1.94;85.00;101514.39;1771279;79;21404;-62
2020/12/05 06:31:45;;;;;;;7.77;4.30;;;;;;;-1.93;84.98;101509.48;1767958;80;21068;-76
2020/12/05 06:34:37;;;;;;;16.60;5.97;;;;;;;-1.88;84.98;101506.67;1827284;76;27876;-64
2020/12/05 06:37:05;;;;;;;7.60;3.20;;;;;;;-1.89;84.96;101512.88;1814742;79;21007;-73
2020/12/05 06:39:33;;;;;;;4.03;3.33;;;;;;;-1.87;84.84;101506.62;1783349;79;21184;-65
2020/12/05 06:42:01;;;;;;;3.67;2.13;;;;;;;-1.88;84.80;101511.98;1814040;79;21032;-67
2020/12/05 06:44:36;;;;;;;6.47;3.07;;;;;;;-1.91;84.78;101508.52;1814272;79;21032;-77
2020/12/05 06:47:08;;;;;;;4.37;2.87;;;;;;;-1.88;84.81;101511.50;1767316;81;21024;-65
2020/12/05 06:49:43;;;;;;;7.00;3.40;;;;;;;-1.79;84.82;101503.68;1890102;76;25955;-76
2020/12/05 06:52:29;;;;;;;4.83;2.63;;;;;;;-1.85;84.75;101512.73;1860925;77;20912;-68
2020/12/05 06:55:14;;;;;;;5.30;3.23;;;;;;;-1.84;84.71;101512.26;1757106;81;21597;-67
2020/12/05 06:57:42;;;;;;;2.55;2.22;;;;;;;-1.82;84.70;101513.95;1756613;80;24820;-71
2020/12/05 07:00:15;;;;;;;5.77;2.87;;;;;;;-1.80;84.73;101514.76;1719166;82;20926;-71
2020/12/05 07:02:53;;;;;;;;;;;;;;;-1.77;84.58;101515.98;1767344;80;20970;-72
2020/12/05 07:05:33;;;;;;;5.93;3.57;;;;;;;-1.72;84.45;101514.47;1825606;77;23967;-72
2020/12/05 07:08:21;;;;;;;3.20;2.20;;;;;;;-1.74;84.31;101509.69;1821769;77;21621;-71
2020/12/05 07:11:15;;;;;;;4.67;3.03;;;;;;;-1.69;84.25;101513.50;1797215;78;22325;-70
2020/12/05 07:13:51;;;;;;;4.58;2.67;;;;;;;-1.65;84.17;101510.66;1803245;78;21574;-73
2020/12/05 07:16:27;;;;;;;3.23;2.70;;;;;;;-1.60;83.98;101498.57;1740980;81;21079;-67
2020/12/05 07:19:02;;;;;;;7.03;3.10;;;;;;;-1.57;83.75;101488.70;1845160;76;23978;-68
2020/12/05 07:21:30;;;;;;;2.20;2.10;;;;;;;-1.62;83.58;101491.99;1806992;79;21043;-66
2020/12/05 07:23:58;;;;;;;9.47;2.93;;;;;;;-1.60;83.42;101496.77;1723457;81;23532;-66
2020/12/05 07:26:26;;;;;;;2.60;1.80;;;;;;;-1.56;83.32;101498.41;1767853;81;20954;-67
2020/12/05 07:31:32;;;;;;;3.67;2.57;;;;;;;-1.38;83.15;101490.20;1830718;76;26938;-67
2020/12/05 07:34:01;;;;;;;2.63;2.07;;;;;;;-1.38;82.99;101495.95;1803356;79;21001;-67
2020/12/05 07:36:34;;;;;;;2.60;2.40;;;;;;;-1.36;82.77;101493.66;1755005;79;21949;-67
2020/12/05 07:39:03;;;;;;;4.60;3.17;;;;;;;-1.34;82.65;101497.12;1808473;79;20960;-68
2020/12/05 07:41:31;;;;;;;3.50;2.10;;;;;;;-1.29;82.50;101494.73;1804153;79;21026;-73
2020/12/05 07:43:59;;;;;;;3.17;2.07;;;;;;;-1.24;82.40;101498.08;1802207;79;21002;-73
2020/12/05 07:46:29;;;;;;;3.67;2.93;;;;;;;-1.22;82.21;101500.20;1733495;82;20977;-73
2020/12/05 07:48:56;;;;;;;4.07;2.57;;;;;;;-1.19;82.12;101494.35;1759238;81;21629;-73
2020/12/05 07:51:24;;;;;;;3.63;2.97;;;;;;;-1.13;82.06;101495.89;1737456;81;21000;-74
2020/12/05 07:53:52;;;;;;;3.83;2.07;;;;;;;-1.08;81.99;101491.71;1720707;81;21052;-74
2020/12/05 07:56:22;;;;;;;4.03;2.57;;;;;;;-1.05;81.89;101488.94;1755146;81;21574;-73
2020/12/05 07:58:58;;;;;;;3.70;2.20;;;;;;;-1.02;81.69;101485.70;1759462;81;20993;-71
2020/12/05 08:01:53;;;;;;;4.20;2.60;;;;;;;-0.98;81.56;101502.38;1753734;79;21207;-71
2020/12/05 08:04:52;;;;;;;4.43;2.40;;;;;;;-0.90;81.53;101497.63;1751192;81;21058;-71
2020/12/05 08:07:38;;;;;;;2.13;1.80;;;;;;;-0.79;81.51;101490.08;1679748;84;21066;-71
2020/12/05 08:10:16;;;;;;;2.97;1.87;;;;;;;-0.72;81.28;101492.03;1706749;83;21637;-70
2020/12/05 08:13:24;;;;;;;4.73;2.67;;;;;;;-0.63;81.07;101487.66;1839721;76;25012;-75
2020/12/05 08:16:06;;;;;;;5.60;2.77;;;;;;;-0.65;80.97;101486.86;1755654;81;20965;-75
2020/12/05 08:18:41;;;;;;;4.40;2.13;;;;;;;-0.56;80.77;101490.93;1844875;76;25054;-75
2020/12/05 08:21:08;;;;;;;3.90;2.10;;;;;;;-0.62;80.65;101481.87;1812914;77;20924;-75
2020/12/05 08:23:37;;;;;;;6.07;3.13;;;;;;;-0.61;80.55;101480.95;1734851;82;21289;-76
2020/12/05 08:26:14;;;;;;;2.67;2.40;;;;;;;-0.58;80.56;101487.48;1762945;81;21044;-76
2020/12/05 08:28:43;;;;;;;3.47;2.17;;;;;;;-0.54;80.56;101483.75;1759851;81;21013;-74
2020/12/05 08:31:14;;;;;;;2.83;2.40;;;;;;;-0.51;80.55;101482.30;1756591;81;20989;-74
2020/12/05 08:33:49;;;;;;;2.47;2.27;;;;;;;-0.48;80.51;101488.83;1761749;79;20977;-73
2020/12/05 08:36:32;;;;;;;5.03;3.30;;;;;;;-0.45;80.40;101476.71;1755563;81;21284;-73
2020/12/05 08:39:06;;;;;;;6.20;3.62;;;;;;;-0.42;80.29;101482.38;1753806;81;23850;-73
2020/12/05 08:41:51;;;;;;;4.80;2.90;;;;;;;-0.41;80.26;101482.32;1722086;83;21500;-73
2020/12/05 08:44:29;;;;;;;4.63;2.27;;;;;;;-0.34;80.16;101482.05;1868066;75;24943;-71
2020/12/05 08:47:08;;;;;;;4.37;2.60;;;;;;;-0.38;80.15;101485.30;1794911;78;20962;-71
2020/12/05 08:49:44;;;;;;;4.63;2.83;;;;;;;-0.31;80.20;101489.89;1798783;78;21134;-74
2020/12/05 08:52:12;;;;;;;5.63;2.40;;;;;;;-0.23;80.19;101491.30;1794736;78;21036;-73
2020/12/05 08:54:50;;;;;;;5.77;3.80;;;;;;;-0.18;80.05;101490.22;1802026;78;20978;-74
2020/12/05 08:57:20;;;;;;;2.17;2.00;;;;;;;-0.16;79.97;101509.62;1760556;80;21088;-74
2020/12/05 08:59:52;;;;;;;3.53;2.43;;;;;;;-0.17;79.69;101495.95;1782113;79;21087;-74
2020/12/05 09:02:19;;;;;;;5.80;3.63;;;;;;;-0.18;79.58;101485.76;1777756;79;21213;-72
2020/12/05 09:04:47;;;;;;;3.90;2.03;;;;;;;-0.18;79.53;101487.09;1784108;79;21009;-72
2020/12/05 09:07:18;;;;;;;10.53;4.73;;;;;;;-0.16;79.55;101481.27;1778770;79;21057;-69
2020/12/05 09:09:47;;;;;;;4.90;2.93;;;;;;;-0.14;79.41;101480.73;1776600;79;21057;-68
2020/12/05 09:12:17;;;;;;;3.10;2.20;;;;;;;-0.14;79.28;101479.41;1780083;79;21015;-69
2020/12/05 09:14:50;;;;;;;6.30;2.60;;;;;;;-0.11;79.28;101485.03;1781293;79;21193;-68
2020/12/05 09:17:27;;;;;;;4.87;2.60;;;;;;;-0.08;79.32;101487.09;1776587;79;21626;-69
2020/12/05 09:20:17;;;;;;;3.57;2.40;;;;;;;-0.05;79.25;101487.44;1772276;80;20943;-69
2020/12/05 09:22:57;;;;;;;4.47;2.37;;;;;;;-0.03;79.17;101486.43;1762929;80;21053;-68
2020/12/05 09:25:36;;;;;;;5.00;3.33;;;;;;;0.02;79.13;101484.91;1717035;83;21654;-67
2020/12/05 09:28:16;;;;;;;3.27;2.40;;;;;;;0.10;79.01;101484.08;1878396;75;24905;-69
2020/12/05 09:30:44;;;;;;;2.67;2.00;;;;;;;0.08;78.87;101501.05;1850616;76;21004;-68
2020/12/05 09:33:15;;;;;;;5.03;2.93;;;;;;;0.08;78.76;101501.05;1869703;76;21354;-70
2020/12/05 09:35:44;;;;;;;4.83;2.83;;;;;;;0.09;78.71;101496.11;1786597;79;21069;-69
2020/12/05 09:38:12;;;;;;;5.90;2.67;;;;;;;0.10;78.64;101498.71;1806321;78;20884;-68
2020/12/05 09:40:40;;;;;;;5.07;2.40;;;;;;;0.11;78.56;101487.16;1788670;79;20983;-67
2020/12/05 09:43:09;;;;;;;4.87;2.03;;;;;;;0.12;78.56;101486.68;1783826;79;20975;-68
2020/12/05 09:45:37;;;;;;;3.37;2.20;;;;;;;0.15;78.57;101490.54;1786117;79;21444;-68
2020/12/05 09:48:05;;;;;;;2.67;1.83;;;;;;;0.18;78.53;101493.07;1795155;79;21062;-68
2020/12/05 09:50:33;;;;;;;4.20;1.90;;;;;;;0.22;78.55;101489.80;1786100;79;21047;-68
2020/12/05 09:53:02;;;;;;;2.27;2.07;;;;;;;0.24;78.52;101483.47;1806552;78;21026;-68
2020/12/05 09:55:30;;;;;;;1.83;1.70;;;;;;;0.29;78.53;101484.60;1785044;79;21562;-68
2020/12/05 09:57:58;;;;;;;1.63;1.47;;;;;;;0.33;78.49;101484.37;1812062;78;21641;-69
2020/12/05 10:00:26;;;;;;;3.67;2.83;;;;;;;0.37;78.45;101479.33;1811889;78;21024;-75
2020/12/05 10:02:55;;;;;;;4.37;2.47;;;;;;;0.42;78.50;101479.09;1811309;78;21032;-72
2020/12/05 10:05:23;;;;;;;2.40;1.87;;;;;;;0.49;78.49;101489.00;1789487;78;20960;-67
2020/12/05 10:07:51;;;;;;;2.87;1.93;;;;;;;0.53;78.45;101485.25;1788339;80;20920;-66
2020/12/05 10:10:19;;;;;;;2.10;1.77;;;;;;;0.59;78.46;101486.31;1789382;79;21633;-67
2020/12/05 10:12:47;;;;;;;2.23;1.73;;;;;;;0.63;78.40;101488.37;1805910;78;21580;-70
2020/12/05 10:15:15;;;;;;;2.40;2.20;;;;;;;0.71;78.43;101477.76;1786310;79;20981;-71
2020/12/05 10:17:43;;;;;;;2.57;2.20;;;;;;;0.77;78.25;101483.25;1812742;78;20946;-72
2020/12/05 10:20:11;;;;;;;1.43;1.33;;;;;;;0.81;78.05;101483.97;1776411;80;20975;-72
2020/12/05 10:22:40;;;;;;;1.80;1.67;;;;;;;0.83;77.98;101492.74;1790178;80;22318;-73
2020/12/05 10:25:11;;;;;;;3.27;2.07;;;;;;;0.85;77.83;101478.88;1789901;80;21163;-73
2020/12/05 10:27:39;;;;;;;3.23;2.03;;;;;;;0.87;77.75;101492.53;1812795;78;20938;-74
2020/12/05 10:30:09;;;;;;;2.63;1.77;;;;;;;0.91;77.73;101487.45;1815758;78;21017;-72
2020/12/05 10:32:37;;;;;;;5.17;1.90;;;;;;;0.95;77.60;101493.49;1772854;79;21074;-72
2020/12/05 10:35:06;;;;;;;3.50;1.83;;;;;;;0.98;77.34;101493.36;1815635;78;21212;-71
2020/12/05 10:37:33;;;;;;;3.53;2.47;;;;;;;1.01;77.26;101492.33;1816578;78;21076;-72
2020/12/05 10:40:01;;;;;;;3.40;2.37;;;;;;;1.06;77.30;101491.64;1798605;79;20947;-72
2020/12/05 10:42:30;;;;;;;4.83;2.33;;;;;;;1.11;77.13;101476.30;1821788;78;21016;-72
2020/12/05 10:44:59;;;;;;;4.23;3.17;;;;;;;1.15;76.91;101479.20;1785157;80;21427;-65
2020/12/05 10:47:28;;;;;;;3.67;2.33;;;;;;;1.17;76.88;101476.02;1799592;79;21431;-66
2020/12/05 10:49:56;;;;;;;3.37;1.93;;;;;;;1.23;76.75;101470.84;1769214;80;21197;-65
2020/12/05 10:52:23;;;;;;;3.60;1.93;;;;;;;1.25;76.66;101479.14;1786048;80;21014;-66
2020/12/05 10:54:52;;;;;;;3.97;2.07;;;;;;;1.29;76.58;101473.19;1822914;78;20988;-66
2020/12/05 10:57:20;;;;;;;3.10;1.83;;;;;;;1.35;76.45;101470.69;1796198;79;21475;-66
2020/12/05 10:59:49;;;;;;;5.67;2.53;;;;;;;1.36;76.16;101469.28;1797136;79;21294;-67
2020/12/05 11:02:19;;;;;;;3.57;2.10;;;;;;;1.39;76.08;101475.80;1772955;79;20985;-67
2020/12/05 11:04:48;;;;;;;2.17;1.97;;;;;;;1.47;75.91;101468.73;1800982;78;20977;-67
2020/12/05 11:07:18;;;;;;;6.67;2.70;;;;;;;1.59;75.86;101465.45;1802369;78;21021;-66
2020/12/05 11:09:48;;;;;;;4.60;3.00;;;;;;;1.76;75.71;101461.93;1811565;78;21024;-69
2020/12/05 11:12:16;;;;;;;3.13;1.93;;;;;;;1.90;75.30;101467.88;1804391;78;21119;-67
2020/12/05 11:14:44;;;;;;;4.83;2.30;;;;;;;2.00;74.80;101462.91;1779190;79;21060;-67
2020/12/05 11:17:13;;;;;;;3.97;2.50;;;;;;;2.06;74.21;101469.27;1776270;78;21046;-67
2020/12/05 11:19:41;;;;;;;2.17;1.60;;;;;;;2.15;74.09;101470.11;1817958;78;20984;-67
2020/12/05 11:22:11;;;;;;;5.00;2.63;;;;;;;2.28;73.88;101472.53;1769813;80;21658;-67
2020/12/05 11:24:39;;;;;;;4.53;2.30;;;;;;;2.41;73.63;101468.72;1808443;78;22502;-68
2020/12/05 11:27:08;;;;;;;5.33;2.90;;;;;;;2.55;73.40;101467.97;1795410;79;21018;-68
2020/12/05 11:29:36;;;;;;;5.23;2.77;;;;;;;2.69;72.96;101470.33;1827692;78;21012;-67
2020/12/05 11:32:03;;;;;;;5.53;2.93;;;;;;;2.79;72.42;101462.20;1812703;78;21002;-68
2020/12/05 11:34:31;;;;;;;6.63;2.80;;;;;;;2.87;71.97;101467.09;1792501;79;20973;-67
2020/12/05 11:37:00;;;;;;;3.93;2.57;;;;;;;2.94;71.42;101461.80;1816530;78;22540;-68
2020/12/05 11:39:28;;;;;;;5.40;2.73;;;;;;;3.02;70.45;101459.55;1791457;79;21038;-68
2020/12/05 11:41:56;;;;;;;10.87;3.00;;;;;;;3.00;69.95;101459.64;1801125;79;20974;-68
2020/12/05 11:44:23;;;;;;;3.10;2.23;;;;;;;3.02;70.06;101461.74;1842335;77;21924;-67
2020/12/05 11:46:51;;;;;;;3.77;2.57;;;;;;;3.10;69.75;101457.77;1764214;81;21640;-68